sensor_id;sensor_type;location;lat;lon;timestamp;P1;durP1;ratioP1;P2;durP2;ratioP2
70715;SDS011;59053;50.832;12.882;2022-08-23T00:00:05;8.63;;;3.50;;
70715;SDS011;59053;50.832;12.882;2022-08-23T00:02:33;10.02;;;3.72;;
70715;SDS011;59053;50.832;12.882;2022-08-23T00:04:59;7.43;;;3.20;;
70715;SDS011;59053;50.832;12.882;2022-08-23T00:07:24;7.50;;;3.77;;
70715;SDS011;59053;50.832;12.882;2022-08-23T00:10:00;7.63;;;3.60;;
70715;SDS011;59053;50.832;12.882;2022-08-23T00:12:33;6.80;;;3.50;;
70715;SDS011;59053;50.832;12.882;2022-08-23T00:14:59;5.65;;;3.40;;
70715;SDS011;59053;50.832;12.882;2022-08-23T00:17:35;9.13;;;3.80;;
70715;SDS011;59053;50.832;12.882;2022-08-23T00:20:04;7.03;;;3.90;;
70715;SDS011;59053;50.832;12.882;2022-08-23T00:22:37;6.93;;;3.70;;
70715;SDS011;59053;50.832;12.882;2022-08-23T00:25:12;8.70;;;4.00;;
70715;SDS011;59053;50.832;12.882;2022-08-23T00:30:59;11.82;;;3.67;;
70715;SDS011;59053;50.832;12.882;2022-08-23T00:36:09;6.30;;;3.50;;
70715;SDS011;59053;50.832;12.882;2022-08-23T00:38:35;7.43;;;3.37;;
70715;SDS011;59053;50.832;12.882;2022-08-23T00:41:03;5.90;;;3.42;;
70715;SDS011;59053;50.832;12.882;2022-08-23T00:43:31;5.83;;;3.30;;
70715;SDS011;59053;50.832;12.882;2022-08-23T00:49:22;6.68;;;3.30;;
70715;SDS011;59053;50.832;12.882;2022-08-23T00:54:23;6.65;;;3.70;;
70715;SDS011;59053;50.832;12.882;2022-08-23T00:59:25;7.07;;;3.60;;
70715;SDS011;59053;50.832;12.882;2022-08-23T01:01:51;8.75;;;3.70;;
70715;SDS011;59053;50.832;12.882;2022-08-23T01:04:17;6.37;;;3.40;;
70715;SDS011;59053;50.832;12.882;2022-08-23T01:06:47;7.35;;;3.80;;
70715;SDS011;59053;50.832;12.882;2022-08-23T01:12:04;8.05;;;3.80;;
70715;SDS011;59053;50.832;12.882;2022-08-23T01:17:45;5.72;;;3.33;;
70715;SDS011;59053;50.832;12.882;2022-08-23T01:26:00;6.95;;;3.30;;
70715;SDS011;59053;50.832;12.882;2022-08-23T01:28:32;6.85;;;3.40;;
70715;SDS011;59053;50.832;12.882;2022-08-23T01:31:16;6.10;;;3.75;;
70715;SDS011;59053;50.832;12.882;2022-08-23T01:33:44;6.75;;;3.80;;
70715;SDS011;59053;50.832;12.882;2022-08-23T01:36:25;6.20;;;3.67;;
70715;SDS011;59053;50.832;12.882;2022-08-23T01:48:11;9.50;;;4.00;;
70715;SDS011;59053;50.832;12.882;2022-08-23T01:50:37;7.23;;;3.70;;
70715;SDS011;59053;50.832;12.882;2022-08-23T01:53:02;7.72;;;3.72;;
70715;SDS011;59053;50.832;12.882;2022-08-23T01:55:29;14.27;;;3.80;;
70715;SDS011;59053;50.832;12.882;2022-08-23T01:57:59;7.57;;;3.72;;
70715;SDS011;59053;50.832;12.882;2022-08-23T02:00:30;7.07;;;3.57;;
70715;SDS011;59053;50.832;12.882;2022-08-23T02:02:59;7.40;;;3.67;;
70715;SDS011;59053;50.832;12.882;2022-08-23T02:05:26;7.28;;;4.10;;
70715;SDS011;59053;50.832;12.882;2022-08-23T02:07:52;8.23;;;4.50;;
70715;SDS011;59053;50.832;12.882;2022-08-23T02:10:28;6.90;;;3.83;;
70715;SDS011;59053;50.832;12.882;2022-08-23T02:13:00;6.45;;;3.80;;
70715;SDS011;59053;50.832;12.882;2022-08-23T02:15:45;8.13;;;3.70;;
70715;SDS011;59053;50.832;12.882;2022-08-23T02:18:23;7.87;;;4.17;;
70715;SDS011;59053;50.832;12.882;2022-08-23T02:20:50;7.10;;;3.67;;
70715;SDS011;59053;50.832;12.882;2022-08-23T02:26:02;8.43;;;3.60;;
70715;SDS011;59053;50.832;12.882;2022-08-23T02:28:28;7.63;;;4.03;;
70715;SDS011;59053;50.832;12.882;2022-08-23T02:30:53;9.20;;;3.90;;
70715;SDS011;59053;50.832;12.882;2022-08-23T02:33:19;8.05;;;4.15;;
70715;SDS011;59053;50.832;12.882;2022-08-23T02:35:45;7.20;;;3.90;;
70715;SDS011;59053;50.832;12.882;2022-08-23T02:38:11;8.20;;;3.85;;
70715;SDS011;59053;50.832;12.882;2022-08-23T02:49:01;9.30;;;4.13;;
70715;SDS011;59053;50.832;12.882;2022-08-23T02:51:38;7.28;;;3.88;;
70715;SDS011;59053;50.832;12.882;2022-08-23T02:54:04;8.63;;;4.03;;
70715;SDS011;59053;50.832;12.882;2022-08-23T02:56:31;6.25;;;4.00;;
70715;SDS011;59053;50.832;12.882;2022-08-23T02:58:57;8.45;;;4.22;;
70715;SDS011;59053;50.832;12.882;2022-08-23T03:01:24;8.27;;;3.80;;
70715;SDS011;59053;50.832;12.882;2022-08-23T03:03:53;7.27;;;3.80;;
70715;SDS011;59053;50.832;12.882;2022-08-23T03:06:20;7.03;;;3.53;;
70715;SDS011;59053;50.832;12.882;2022-08-23T03:08:46;7.30;;;4.07;;
70715;SDS011;59053;50.832;12.882;2022-08-23T03:11:13;8.47;;;4.13;;
70715;SDS011;59053;50.832;12.882;2022-08-23T03:13:40;7.07;;;3.90;;
70715;SDS011;59053;50.832;12.882;2022-08-23T03:16:07;8.60;;;4.20;;
70715;SDS011;59053;50.832;12.882;2022-08-23T03:18:34;7.60;;;4.10;;
70715;SDS011;59053;50.832;12.882;2022-08-23T03:21:03;8.85;;;3.88;;
70715;SDS011;59053;50.832;12.882;2022-08-23T03:26:14;6.57;;;3.92;;
70715;SDS011;59053;50.832;12.882;2022-08-23T03:28:41;11.07;;;3.97;;
70715;SDS011;59053;50.832;12.882;2022-08-23T03:31:08;7.22;;;4.10;;
70715;SDS011;59053;50.832;12.882;2022-08-23T03:33:42;8.20;;;4.20;;
70715;SDS011;59053;50.832;12.882;2022-08-23T03:36:09;7.07;;;4.10;;
70715;SDS011;59053;50.832;12.882;2022-08-23T03:38:35;7.35;;;4.15;;
70715;SDS011;59053;50.832;12.882;2022-08-23T03:41:04;9.00;;;4.13;;
70715;SDS011;59053;50.832;12.882;2022-08-23T03:43:30;7.07;;;3.90;;
70715;SDS011;59053;50.832;12.882;2022-08-23T03:45:56;7.43;;;4.33;;
70715;SDS011;59053;50.832;12.882;2022-08-23T03:48:21;6.60;;;3.80;;
70715;SDS011;59053;50.832;12.882;2022-08-23T03:50:47;7.07;;;3.90;;
70715;SDS011;59053;50.832;12.882;2022-08-23T03:53:14;8.55;;;4.40;;
70715;SDS011;59053;50.832;12.882;2022-08-23T03:55:42;7.73;;;4.23;;
70715;SDS011;59053;50.832;12.882;2022-08-23T03:58:25;8.38;;;4.60;;
70715;SDS011;59053;50.832;12.882;2022-08-23T04:00:53;8.35;;;4.45;;
70715;SDS011;59053;50.832;12.882;2022-08-23T04:03:21;11.93;;;4.80;;
70715;SDS011;59053;50.832;12.882;2022-08-23T04:18:50;10.80;;;4.90;;
70715;SDS011;59053;50.832;12.882;2022-08-23T04:21:20;9.83;;;4.80;;
70715;SDS011;59053;50.832;12.882;2022-08-23T04:27:12;11.50;;;4.88;;
70715;SDS011;59053;50.832;12.882;2022-08-23T04:29:38;10.25;;;5.30;;
70715;SDS011;59053;50.832;12.882;2022-08-23T04:37:56;9.85;;;5.35;;
70715;SDS011;59053;50.832;12.882;2022-08-23T04:40:35;9.70;;;5.05;;
70715;SDS011;59053;50.832;12.882;2022-08-23T04:43:25;10.17;;;5.27;;
70715;SDS011;59053;50.832;12.882;2022-08-23T04:48:43;10.13;;;4.93;;
70715;SDS011;59053;50.832;12.882;2022-08-23T04:51:14;10.00;;;4.82;;
70715;SDS011;59053;50.832;12.882;2022-08-23T04:53:51;10.52;;;4.90;;
70715;SDS011;59053;50.832;12.882;2022-08-23T05:09:16;10.18;;;5.15;;
70715;SDS011;59053;50.832;12.882;2022-08-23T05:11:48;10.93;;;5.37;;
70715;SDS011;59053;50.832;12.882;2022-08-23T05:20:38;11.05;;;5.32;;
70715;SDS011;59053;50.832;12.882;2022-08-23T05:34:20;9.68;;;5.25;;
70715;SDS011;59053;50.832;12.882;2022-08-23T05:49:09;15.35;;;7.10;;
70715;SDS011;59053;50.832;12.882;2022-08-23T05:51:35;12.27;;;6.82;;
70715;SDS011;59053;50.832;12.882;2022-08-23T05:54:04;12.10;;;6.50;;
70715;SDS011;59053;50.832;12.882;2022-08-23T05:56:33;14.40;;;7.13;;
70715;SDS011;59053;50.832;12.882;2022-08-23T05:59:11;12.85;;;7.07;;
70715;SDS011;59053;50.832;12.882;2022-08-23T06:01:38;14.70;;;7.83;;
70715;SDS011;59053;50.832;12.882;2022-08-23T06:04:11;16.60;;;8.02;;
70715;SDS011;59053;50.832;12.882;2022-08-23T06:06:38;14.25;;;7.80;;
70715;SDS011;59053;50.832;12.882;2022-08-23T06:09:05;15.25;;;7.70;;
70715;SDS011;59053;50.832;12.882;2022-08-23T06:11:33;13.70;;;7.82;;
70715;SDS011;59053;50.832;12.882;2022-08-23T06:13:59;13.40;;;8.00;;
70715;SDS011;59053;50.832;12.882;2022-08-23T06:16:30;14.77;;;7.47;;
70715;SDS011;59053;50.832;12.882;2022-08-23T06:18:58;11.43;;;7.20;;
70715;SDS011;59053;50.832;12.882;2022-08-23T06:21:45;15.68;;;7.78;;
70715;SDS011;59053;50.832;12.882;2022-08-23T06:24:10;15.53;;;8.60;;
70715;SDS011;59053;50.832;12.882;2022-08-23T06:26:45;13.60;;;8.07;;
70715;SDS011;59053;50.832;12.882;2022-08-23T06:29:11;13.57;;;7.80;;
70715;SDS011;59053;50.832;12.882;2022-08-23T06:31:39;13.38;;;7.82;;
70715;SDS011;59053;50.832;12.882;2022-08-23T06:37:03;13.87;;;7.50;;
70715;SDS011;59053;50.832;12.882;2022-08-23T06:39:48;13.43;;;7.03;;
70715;SDS011;59053;50.832;12.882;2022-08-23T06:42:32;13.75;;;7.43;;
70715;SDS011;59053;50.832;12.882;2022-08-23T06:45:01;13.20;;;7.20;;
70715;SDS011;59053;50.832;12.882;2022-08-23T06:47:35;11.65;;;6.35;;
70715;SDS011;59053;50.832;12.882;2022-08-23T06:50:02;12.67;;;6.80;;
70715;SDS011;59053;50.832;12.882;2022-08-23T06:52:47;13.00;;;6.75;;
70715;SDS011;59053;50.832;12.882;2022-08-23T06:55:22;14.32;;;6.55;;
70715;SDS011;59053;50.832;12.882;2022-08-23T06:58:10;12.23;;;6.47;;
70715;SDS011;59053;50.832;12.882;2022-08-23T07:00:50;13.88;;;6.70;;
70715;SDS011;59053;50.832;12.882;2022-08-23T07:03:36;12.00;;;6.80;;
70715;SDS011;59053;50.832;12.882;2022-08-23T07:06:21;12.38;;;7.25;;
70715;SDS011;59053;50.832;12.882;2022-08-23T07:08:47;10.52;;;6.25;;
70715;SDS011;59053;50.832;12.882;2022-08-23T07:11:13;11.20;;;6.80;;
70715;SDS011;59053;50.832;12.882;2022-08-23T07:13:39;11.57;;;6.40;;
70715;SDS011;59053;50.832;12.882;2022-08-23T07:16:04;10.37;;;6.37;;
70715;SDS011;59053;50.832;12.882;2022-08-23T07:18:31;11.63;;;6.53;;
70715;SDS011;59053;50.832;12.882;2022-08-23T07:20:57;11.77;;;6.18;;
70715;SDS011;59053;50.832;12.882;2022-08-23T07:23:24;14.35;;;6.20;;
70715;SDS011;59053;50.832;12.882;2022-08-23T07:25:51;12.93;;;6.70;;
70715;SDS011;59053;50.832;12.882;2022-08-23T07:28:19;12.85;;;6.50;;
70715;SDS011;59053;50.832;12.882;2022-08-23T07:30:45;19.77;;;5.60;;
70715;SDS011;59053;50.832;12.882;2022-08-23T07:33:10;11.87;;;6.00;;
70715;SDS011;59053;50.832;12.882;2022-08-23T07:35:56;12.10;;;5.60;;
70715;SDS011;59053;50.832;12.882;2022-08-23T07:38:21;9.73;;;5.30;;
70715;SDS011;59053;50.832;12.882;2022-08-23T07:40:46;12.27;;;5.90;;
70715;SDS011;59053;50.832;12.882;2022-08-23T07:43:13;12.77;;;5.90;;
70715;SDS011;59053;50.832;12.882;2022-08-23T07:45:40;9.60;;;5.45;;
70715;SDS011;59053;50.832;12.882;2022-08-23T07:48:09;9.05;;;5.32;;
70715;SDS011;59053;50.832;12.882;2022-08-23T07:50:50;12.88;;;5.43;;
70715;SDS011;59053;50.832;12.882;2022-08-23T07:53:16;10.80;;;5.30;;
70715;SDS011;59053;50.832;12.882;2022-08-23T07:55:42;7.68;;;4.60;;
70715;SDS011;59053;50.832;12.882;2022-08-23T07:58:20;8.70;;;4.63;;
70715;SDS011;59053;50.832;12.882;2022-08-23T08:01:15;9.70;;;4.80;;
70715;SDS011;59053;50.832;12.882;2022-08-23T08:03:46;6.55;;;3.92;;
70715;SDS011;59053;50.832;12.882;2022-08-23T08:06:27;6.80;;;3.20;;
70715;SDS011;59053;50.832;12.882;2022-08-23T08:08:57;9.25;;;3.78;;
70715;SDS011;59053;50.832;12.882;2022-08-23T08:11:23;9.27;;;4.20;;
70715;SDS011;59053;50.832;12.882;2022-08-23T08:13:51;6.93;;;3.93;;
70715;SDS011;59053;50.832;12.882;2022-08-23T08:16:29;9.18;;;3.83;;
70715;SDS011;59053;50.832;12.882;2022-08-23T08:18:57;10.20;;;4.07;;
70715;SDS011;59053;50.832;12.882;2022-08-23T08:21:44;9.65;;;4.78;;
70715;SDS011;59053;50.832;12.882;2022-08-23T08:24:25;8.27;;;4.78;;
70715;SDS011;59053;50.832;12.882;2022-08-23T08:26:56;9.97;;;3.67;;
70715;SDS011;59053;50.832;12.882;2022-08-23T08:29:21;9.73;;;4.30;;
70715;SDS011;59053;50.832;12.882;2022-08-23T08:31:49;8.30;;;4.40;;
70715;SDS011;59053;50.832;12.882;2022-08-23T08:34:15;9.38;;;4.20;;
70715;SDS011;59053;50.832;12.882;2022-08-23T08:36:49;7.90;;;4.22;;
70715;SDS011;59053;50.832;12.882;2022-08-23T08:39:20;7.72;;;4.00;;
70715;SDS011;59053;50.832;12.882;2022-08-23T08:41:56;9.57;;;4.47;;
70715;SDS011;59053;50.832;12.882;2022-08-23T08:44:41;8.63;;;3.60;;
70715;SDS011;59053;50.832;12.882;2022-08-23T08:47:20;8.45;;;3.90;;
70715;SDS011;59053;50.832;12.882;2022-08-23T08:49:56;8.00;;;4.13;;
70715;SDS011;59053;50.832;12.882;2022-08-23T08:52:27;6.57;;;4.20;;
70715;SDS011;59053;50.832;12.882;2022-08-23T08:55:00;7.40;;;4.03;;
70715;SDS011;59053;50.832;12.882;2022-08-23T08:57:31;7.57;;;4.20;;
70715;SDS011;59053;50.832;12.882;2022-08-23T09:00:05;8.27;;;4.07;;
70715;SDS011;59053;50.832;12.882;2022-08-23T09:02:37;8.20;;;4.18;;
70715;SDS011;59053;50.832;12.882;2022-08-23T09:05:09;8.45;;;3.92;;
70715;SDS011;59053;50.832;12.882;2022-08-23T09:07:44;8.48;;;4.00;;
70715;SDS011;59053;50.832;12.882;2022-08-23T09:18:33;9.40;;;3.72;;
70715;SDS011;59053;50.832;12.882;2022-08-23T09:21:00;6.82;;;3.30;;
70715;SDS011;59053;50.832;12.882;2022-08-23T09:23:32;5.57;;;3.60;;
70715;SDS011;59053;50.832;12.882;2022-08-23T09:26:02;7.30;;;3.80;;
70715;SDS011;59053;50.832;12.882;2022-08-23T09:28:36;6.57;;;3.17;;
70715;SDS011;59053;50.832;12.882;2022-08-23T09:31:03;6.22;;;3.60;;
70715;SDS011;59053;50.832;12.882;2022-08-23T09:33:37;6.88;;;3.40;;
70715;SDS011;59053;50.832;12.882;2022-08-23T09:36:15;6.67;;;3.53;;
70715;SDS011;59053;50.832;12.882;2022-08-23T09:38:55;6.40;;;3.08;;
70715;SDS011;59053;50.832;12.882;2022-08-23T09:41:24;6.97;;;3.25;;
70715;SDS011;59053;50.832;12.882;2022-08-23T09:43:53;8.32;;;3.40;;
70715;SDS011;59053;50.832;12.882;2022-08-23T09:46:24;7.05;;;3.17;;
70715;SDS011;59053;50.832;12.882;2022-08-23T09:48:51;6.80;;;3.53;;
70715;SDS011;59053;50.832;12.882;2022-08-23T09:51:29;8.07;;;3.55;;
70715;SDS011;59053;50.832;12.882;2022-08-23T09:54:09;8.55;;;3.65;;
70715;SDS011;59053;50.832;12.882;2022-08-23T09:56:39;6.80;;;3.05;;
70715;SDS011;59053;50.832;12.882;2022-08-23T10:01:56;5.90;;;3.17;;
70715;SDS011;59053;50.832;12.882;2022-08-23T10:04:23;7.03;;;3.47;;
70715;SDS011;59053;50.832;12.882;2022-08-23T10:06:54;6.82;;;3.10;;
70715;SDS011;59053;50.832;12.882;2022-08-23T10:09:21;5.50;;;2.83;;
70715;SDS011;59053;50.832;12.882;2022-08-23T10:11:53;7.28;;;3.22;;
70715;SDS011;59053;50.832;12.882;2022-08-23T10:14:20;5.60;;;3.10;;
70715;SDS011;59053;50.832;12.882;2022-08-23T10:19:43;7.82;;;3.22;;
70715;SDS011;59053;50.832;12.882;2022-08-23T10:22:19;6.90;;;2.43;;
70715;SDS011;59053;50.832;12.882;2022-08-23T10:25:29;6.68;;;3.10;;
70715;SDS011;59053;50.832;12.882;2022-08-23T10:31:05;5.10;;;2.90;;
70715;SDS011;59053;50.832;12.882;2022-08-23T10:39:06;6.38;;;2.95;;
70715;SDS011;59053;50.832;12.882;2022-08-23T10:47:19;4.50;;;2.78;;
70715;SDS011;59053;50.832;12.882;2022-08-23T10:49:53;5.70;;;2.97;;
70715;SDS011;59053;50.832;12.882;2022-08-23T10:52:23;6.63;;;2.88;;
70715;SDS011;59053;50.832;12.882;2022-08-23T10:54:59;7.13;;;3.15;;
70715;SDS011;59053;50.832;12.882;2022-08-23T10:57:43;6.90;;;2.80;;
70715;SDS011;59053;50.832;12.882;2022-08-23T11:00:11;8.98;;;3.15;;
70715;SDS011;59053;50.832;12.882;2022-08-23T11:02:44;10.07;;;3.00;;
70715;SDS011;59053;50.832;12.882;2022-08-23T11:05:30;5.88;;;2.78;;
70715;SDS011;59053;50.832;12.882;2022-08-23T11:08:10;5.78;;;2.88;;
70715;SDS011;59053;50.832;12.882;2022-08-23T11:15:44;8.50;;;3.00;;
70715;SDS011;59053;50.832;12.882;2022-08-23T11:18:37;8.38;;;3.20;;
70715;SDS011;59053;50.832;12.882;2022-08-23T11:21:10;5.00;;;3.05;;
70715;SDS011;59053;50.832;12.882;2022-08-23T11:34:08;10.07;;;4.20;;
70715;SDS011;59053;50.832;12.882;2022-08-23T11:42:32;9.65;;;4.50;;
70715;SDS011;59053;50.832;12.882;2022-08-23T11:56:29;7.63;;;4.20;;
70715;SDS011;59053;50.832;12.882;2022-08-23T12:01:41;9.07;;;4.30;;
70715;SDS011;59053;50.832;12.882;2022-08-23T12:04:11;7.78;;;4.07;;
70715;SDS011;59053;50.832;12.882;2022-08-23T12:06:55;8.52;;;4.03;;
70715;SDS011;59053;50.832;12.882;2022-08-23T12:16:57;8.97;;;4.03;;
70715;SDS011;59053;50.832;12.882;2022-08-23T12:19:27;8.57;;;4.50;;
70715;SDS011;59053;50.832;12.882;2022-08-23T12:21:57;9.60;;;4.60;;
70715;SDS011;59053;50.832;12.882;2022-08-23T12:27:36;9.23;;;4.10;;
70715;SDS011;59053;50.832;12.882;2022-08-23T12:35:39;7.82;;;4.10;;
70715;SDS011;59053;50.832;12.882;2022-08-23T12:38:10;6.97;;;3.70;;
70715;SDS011;59053;50.832;12.882;2022-08-23T12:40:44;7.32;;;4.40;;
70715;SDS011;59053;50.832;12.882;2022-08-23T12:45:42;6.50;;;3.90;;
70715;SDS011;59053;50.832;12.882;2022-08-23T12:48:10;8.67;;;3.73;;
70715;SDS011;59053;50.832;12.882;2022-08-23T12:50:38;6.28;;;4.00;;
70715;SDS011;59053;50.832;12.882;2022-08-23T12:53:07;7.15;;;3.97;;
70715;SDS011;59053;50.832;12.882;2022-08-23T12:55:41;8.00;;;3.95;;
70715;SDS011;59053;50.832;12.882;2022-08-23T12:58:09;8.23;;;3.63;;
70715;SDS011;59053;50.832;12.882;2022-08-23T13:00:41;5.77;;;2.97;;
70715;SDS011;59053;50.832;12.882;2022-08-23T13:05:47;7.00;;;3.75;;
70715;SDS011;59053;50.832;12.882;2022-08-23T13:08:17;7.33;;;3.50;;
70715;SDS011;59053;50.832;12.882;2022-08-23T13:10:45;6.20;;;3.42;;
70715;SDS011;59053;50.832;12.882;2022-08-23T13:13:12;7.70;;;3.80;;
70715;SDS011;59053;50.832;12.882;2022-08-23T13:15:40;5.88;;;3.45;;
70715;SDS011;59053;50.832;12.882;2022-08-23T13:18:06;10.85;;;3.40;;
70715;SDS011;59053;50.832;12.882;2022-08-23T13:20:31;8.07;;;3.20;;
70715;SDS011;59053;50.832;12.882;2022-08-23T13:22:59;7.47;;;3.40;;
70715;SDS011;59053;50.832;12.882;2022-08-23T13:25:37;7.85;;;2.90;;
70715;SDS011;59053;50.832;12.882;2022-08-23T13:28:05;6.60;;;2.97;;
70715;SDS011;59053;50.832;12.882;2022-08-23T13:30:34;8.20;;;3.27;;
70715;SDS011;59053;50.832;12.882;2022-08-23T13:35:45;5.53;;;3.25;;
70715;SDS011;59053;50.832;12.882;2022-08-23T13:40:39;4.43;;;2.93;;
70715;SDS011;59053;50.832;12.882;2022-08-23T13:48:36;4.97;;;2.27;;
70715;SDS011;59053;50.832;12.882;2022-08-23T13:52:01;8.13;;;3.25;;
70715;SDS011;59053;50.832;12.882;2022-08-23T13:54:10;7.65;;;2.95;;
70715;SDS011;59053;50.832;12.882;2022-08-23T13:56:47;4.97;;;2.92;;
70715;SDS011;59053;50.832;12.882;2022-08-23T14:01:52;5.33;;;3.07;;
70715;SDS011;59053;50.832;12.882;2022-08-23T14:04:17;5.72;;;2.65;;
70715;SDS011;59053;50.832;12.882;2022-08-23T14:06:43;8.03;;;3.17;;
70715;SDS011;59053;50.832;12.882;2022-08-23T14:09:08;5.10;;;2.90;;
70715;SDS011;59053;50.832;12.882;2022-08-23T14:11:34;5.80;;;3.00;;
70715;SDS011;59053;50.832;12.882;2022-08-23T14:13:59;4.07;;;2.70;;
70715;SDS011;59053;50.832;12.882;2022-08-23T14:16:25;5.50;;;3.07;;
70715;SDS011;59053;50.832;12.882;2022-08-23T14:18:52;5.45;;;2.90;;
70715;SDS011;59053;50.832;12.882;2022-08-23T14:21:18;6.80;;;2.90;;
70715;SDS011;59053;50.832;12.882;2022-08-23T14:23:43;5.43;;;3.10;;
70715;SDS011;59053;50.832;12.882;2022-08-23T14:26:09;5.97;;;3.13;;
70715;SDS011;59053;50.832;12.882;2022-08-23T14:28:38;8.45;;;3.30;;
70715;SDS011;59053;50.832;12.882;2022-08-23T14:31:03;4.57;;;3.00;;
70715;SDS011;59053;50.832;12.882;2022-08-23T14:33:29;4.60;;;2.80;;
70715;SDS011;59053;50.832;12.882;2022-08-23T14:35:55;5.07;;;3.00;;
70715;SDS011;59053;50.832;12.882;2022-08-23T14:38:21;5.47;;;2.70;;
70715;SDS011;59053;50.832;12.882;2022-08-23T14:40:49;4.00;;;2.80;;
70715;SDS011;59053;50.832;12.882;2022-08-23T14:43:17;4.25;;;2.75;;
70715;SDS011;59053;50.832;12.882;2022-08-23T14:45:42;7.22;;;2.88;;
70715;SDS011;59053;50.832;12.882;2022-08-23T14:48:08;4.90;;;2.80;;
70715;SDS011;59053;50.832;12.882;2022-08-23T14:50:33;5.83;;;3.23;;
70715;SDS011;59053;50.832;12.882;2022-08-23T14:53:00;5.23;;;2.70;;
70715;SDS011;59053;50.832;12.882;2022-08-23T14:55:29;5.32;;;2.90;;
70715;SDS011;59053;50.832;12.882;2022-08-23T14:57:54;5.97;;;3.10;;
70715;SDS011;59053;50.832;12.882;2022-08-23T15:00:19;6.00;;;2.73;;
70715;SDS011;59053;50.832;12.882;2022-08-23T15:02:45;4.80;;;2.70;;
70715;SDS011;59053;50.832;12.882;2022-08-23T15:05:12;4.13;;;2.63;;
70715;SDS011;59053;50.832;12.882;2022-08-23T15:07:38;3.77;;;2.43;;
70715;SDS011;59053;50.832;12.882;2022-08-23T15:10:03;5.47;;;2.40;;
70715;SDS011;59053;50.832;12.882;2022-08-23T15:12:29;3.95;;;2.30;;
70715;SDS011;59053;50.832;12.882;2022-08-23T15:14:55;4.93;;;2.30;;
70715;SDS011;59053;50.832;12.882;2022-08-23T15:17:20;10.23;;;2.50;;
70715;SDS011;59053;50.832;12.882;2022-08-23T15:19:45;5.93;;;2.20;;
70715;SDS011;59053;50.832;12.882;2022-08-23T15:22:11;3.40;;;2.20;;
70715;SDS011;59053;50.832;12.882;2022-08-23T15:24:36;3.33;;;2.20;;
70715;SDS011;59053;50.832;12.882;2022-08-23T15:27:03;6.50;;;2.60;;
70715;SDS011;59053;50.832;12.882;2022-08-23T15:29:29;3.73;;;1.90;;
70715;SDS011;59053;50.832;12.882;2022-08-23T15:31:54;5.70;;;2.10;;
70715;SDS011;59053;50.832;12.882;2022-08-23T15:34:20;4.45;;;1.98;;
70715;SDS011;59053;50.832;12.882;2022-08-23T15:36:45;5.33;;;2.20;;
70715;SDS011;59053;50.832;12.882;2022-08-23T15:39:11;2.75;;;2.03;;
70715;SDS011;59053;50.832;12.882;2022-08-23T15:41:36;4.67;;;2.23;;
70715;SDS011;59053;50.832;12.882;2022-08-23T15:44:02;4.77;;;2.40;;
70715;SDS011;59053;50.832;12.882;2022-08-23T15:46:27;3.78;;;2.33;;
70715;SDS011;59053;50.832;12.882;2022-08-23T15:48:57;4.80;;;2.17;;
70715;SDS011;59053;50.832;12.882;2022-08-23T15:51:26;4.35;;;2.10;;
70715;SDS011;59053;50.832;12.882;2022-08-23T15:53:51;5.47;;;2.40;;
70715;SDS011;59053;50.832;12.882;2022-08-23T15:56:18;3.70;;;2.20;;
70715;SDS011;59053;50.832;12.882;2022-08-23T15:58:45;3.92;;;2.15;;
70715;SDS011;59053;50.832;12.882;2022-08-23T16:01:11;3.00;;;2.10;;
70715;SDS011;59053;50.832;12.882;2022-08-23T16:03:37;5.20;;;2.30;;
70715;SDS011;59053;50.832;12.882;2022-08-23T16:06:04;3.83;;;2.30;;
70715;SDS011;59053;50.832;12.882;2022-08-23T16:08:30;5.30;;;2.60;;
70715;SDS011;59053;50.832;12.882;2022-08-23T16:10:58;4.67;;;2.40;;
70715;SDS011;59053;50.832;12.882;2022-08-23T16:13:25;5.45;;;2.53;;
70715;SDS011;59053;50.832;12.882;2022-08-23T16:15:54;6.05;;;2.50;;
70715;SDS011;59053;50.832;12.882;2022-08-23T16:18:27;5.82;;;2.63;;
70715;SDS011;59053;50.832;12.882;2022-08-23T16:20:52;5.07;;;2.50;;
70715;SDS011;59053;50.832;12.882;2022-08-23T16:23:18;5.50;;;2.70;;
70715;SDS011;59053;50.832;12.882;2022-08-23T16:25:43;3.80;;;2.50;;
70715;SDS011;59053;50.832;12.882;2022-08-23T16:28:09;4.28;;;2.55;;
70715;SDS011;59053;50.832;12.882;2022-08-23T16:30:35;4.67;;;2.70;;
70715;SDS011;59053;50.832;12.882;2022-08-23T16:33:00;5.47;;;2.70;;
70715;SDS011;59053;50.832;12.882;2022-08-23T16:35:26;5.13;;;2.73;;
70715;SDS011;59053;50.832;12.882;2022-08-23T16:37:51;6.97;;;2.93;;
70715;SDS011;59053;50.832;12.882;2022-08-23T16:40:18;5.90;;;3.00;;
70715;SDS011;59053;50.832;12.882;2022-08-23T16:42:44;7.60;;;3.30;;
70715;SDS011;59053;50.832;12.882;2022-08-23T16:45:10;9.93;;;3.30;;
70715;SDS011;59053;50.832;12.882;2022-08-23T16:47:37;6.30;;;3.40;;
70715;SDS011;59053;50.832;12.882;2022-08-23T16:50:04;6.80;;;3.30;;
70715;SDS011;59053;50.832;12.882;2022-08-23T16:52:30;5.22;;;3.05;;
70715;SDS011;59053;50.832;12.882;2022-08-23T16:54:55;9.83;;;3.00;;
70715;SDS011;59053;50.832;12.882;2022-08-23T16:57:20;7.97;;;3.10;;
70715;SDS011;59053;50.832;12.882;2022-08-23T16:59:46;12.63;;;3.03;;
70715;SDS011;59053;50.832;12.882;2022-08-23T17:02:30;7.83;;;3.07;;
70715;SDS011;59053;50.832;12.882;2022-08-23T17:04:57;9.68;;;3.30;;
70715;SDS011;59053;50.832;12.882;2022-08-23T17:07:23;6.70;;;2.97;;
70715;SDS011;59053;50.832;12.882;2022-08-23T17:09:48;8.23;;;3.20;;
70715;SDS011;59053;50.832;12.882;2022-08-23T17:12:14;7.97;;;3.00;;
70715;SDS011;59053;50.832;12.882;2022-08-23T17:14:40;5.93;;;3.40;;
70715;SDS011;59053;50.832;12.882;2022-08-23T17:17:05;8.40;;;3.80;;
70715;SDS011;59053;50.832;12.882;2022-08-23T17:19:31;7.70;;;3.30;;
70715;SDS011;59053;50.832;12.882;2022-08-23T17:21:56;8.87;;;3.20;;
70715;SDS011;59053;50.832;12.882;2022-08-23T17:24:21;8.43;;;3.30;;
70715;SDS011;59053;50.832;12.882;2022-08-23T17:26:48;8.18;;;3.53;;
70715;SDS011;59053;50.832;12.882;2022-08-23T17:29:14;6.80;;;3.80;;
70715;SDS011;59053;50.832;12.882;2022-08-23T17:31:40;8.83;;;3.30;;
70715;SDS011;59053;50.832;12.882;2022-08-23T17:34:05;6.33;;;3.30;;
70715;SDS011;59053;50.832;12.882;2022-08-23T17:39:09;6.30;;;3.33;;
70715;SDS011;59053;50.832;12.882;2022-08-23T17:41:36;7.95;;;3.63;;
70715;SDS011;59053;50.832;12.882;2022-08-23T17:44:03;8.90;;;3.27;;
70715;SDS011;59053;50.832;12.882;2022-08-23T17:46:28;7.35;;;3.60;;
70715;SDS011;59053;50.832;12.882;2022-08-23T17:48:54;7.13;;;3.40;;
70715;SDS011;59053;50.832;12.882;2022-08-23T17:51:21;8.93;;;3.57;;
70715;SDS011;59053;50.832;12.882;2022-08-23T17:53:46;9.07;;;3.40;;
70715;SDS011;59053;50.832;12.882;2022-08-23T17:56:12;7.43;;;3.60;;
70715;SDS011;59053;50.832;12.882;2022-08-23T17:58:37;7.60;;;3.70;;
70715;SDS011;59053;50.832;12.882;2022-08-23T18:01:03;8.07;;;3.37;;
70715;SDS011;59053;50.832;12.882;2022-08-23T18:03:28;8.05;;;3.70;;
70715;SDS011;59053;50.832;12.882;2022-08-23T18:05:55;8.73;;;3.90;;
70715;SDS011;59053;50.832;12.882;2022-08-23T18:08:20;5.97;;;3.60;;
70715;SDS011;59053;50.832;12.882;2022-08-23T18:10:46;7.00;;;3.67;;
70715;SDS011;59053;50.832;12.882;2022-08-23T18:13:12;7.32;;;3.60;;
70715;SDS011;59053;50.832;12.882;2022-08-23T18:15:37;6.30;;;3.40;;
70715;SDS011;59053;50.832;12.882;2022-08-23T18:18:03;11.67;;;3.80;;
70715;SDS011;59053;50.832;12.882;2022-08-23T18:20:29;8.50;;;3.78;;
70715;SDS011;59053;50.832;12.882;2022-08-23T18:22:55;8.60;;;3.80;;
70715;SDS011;59053;50.832;12.882;2022-08-23T18:25:21;7.60;;;4.22;;